sensor_id;sensor_type;location;lat;lon;timestamp;pressure;altitude;pressure_sealevel;temperature;humidity
71716;BME280;59568;52.128;5.434;2024-01-10T00:02:01;103400.81;;;-5.56;100.00
71716;BME280;59568;52.128;5.434;2024-01-10T00:04:30;103400.13;;;-5.58;100.00
71716;BME280;59568;52.128;5.434;2024-01-10T00:06:57;103399.53;;;-5.62;100.00
71716;BME280;59568;52.128;5.434;2024-01-10T00:09:23;103388.78;;;-5.65;100.00
71716;BME280;59568;52.128;5.434;2024-01-10T00:11:50;103390.75;;;-5.69;100.00
71716;BME280;59568;52.128;5.434;2024-01-10T00:14:17;103395.03;;;-5.69;100.00
71716;BME280;59568;52.128;5.434;2024-01-10T00:16:44;103397.44;;;-5.68;100.00
71716;BME280;59568;52.128;5.434;2024-01-10T00:19:11;103392.50;;;-5.69;100.00
71716;BME280;59568;52.128;5.434;2024-01-10T00:21:38;103400.25;;;-5.71;100.00
71716;BME280;59568;52.128;5.434;2024-01-10T00:24:05;103396.06;;;-5.72;100.00
71716;BME280;59568;52.128;5.434;2024-01-10T00:26:32;103382.63;;;-5.74;100.00
71716;BME280;59568;52.128;5.434;2024-01-10T00:28:59;103396.19;;;-5.73;100.00
71716;BME280;59568;52.128;5.434;2024-01-10T00:31:30;103393.84;;;-5.76;100.00
71716;BME280;59568;52.128;5.434;2024-01-10T00:33:57;103387.28;;;-5.79;100.00
71716;BME280;59568;52.128;5.434;2024-01-10T00:36:25;103387.28;;;-5.79;100.00
71716;BME280;59568;52.128;5.434;2024-01-10T00:38:52;103383.19;;;-5.82;100.00
71716;BME280;59568;52.128;5.434;2024-01-10T00:41:19;103379.03;;;-5.83;100.00
71716;BME280;59568;52.128;5.434;2024-01-10T00:43:46;103377.53;;;-5.85;100.00
71716;BME280;59568;52.128;5.434;2024-01-10T00:46:13;103375.00;;;-5.85;100.00
71716;BME280;59568;52.128;5.434;2024-01-10T00:48:40;103377.75;;;-5.88;100.00
71716;BME280;59568;52.128;5.434;2024-01-10T00:51:07;103375.19;;;-5.88;100.00
71716;BME280;59568;52.128;5.434;2024-01-10T00:53:36;103372.91;;;-5.91;100.00
71716;BME280;59568;52.128;5.434;2024-01-10T00:56:06;103368.03;;;-5.94;100.00
71716;BME280;59568;52.128;5.434;2024-01-10T00:58:33;103371.53;;;-5.95;100.00
71716;BME280;59568;52.128;5.434;2024-01-10T01:01:00;103366.53;;;-5.97;100.00
71716;BME280;59568;52.128;5.434;2024-01-10T01:03:27;103360.75;;;-5.99;100.00
71716;BME280;59568;52.128;5.434;2024-01-10T01:05:55;103372.78;;;-6.01;100.00
71716;BME280;59568;52.128;5.434;2024-01-10T01:08:22;103371.03;;;-6.00;100.00
71716;BME280;59568;52.128;5.434;2024-01-10T01:10:49;103370.84;;;-5.97;100.00
71716;BME280;59568;52.128;5.434;2024-01-10T01:13:16;103362.59;;;-6.01;100.00
71716;BME280;59568;52.128;5.434;2024-01-10T01:15:43;103371.28;;;-6.04;100.00
71716;BME280;59568;52.128;5.434;2024-01-10T01:18:11;103362.91;;;-6.06;100.00
71716;BME280;59568;52.128;5.434;2024-01-10T01:20:40;103366.41;;;-6.07;100.00
71716;BME280;59568;52.128;5.434;2024-01-10T01:23:06;103375.78;;;-6.07;100.00
71716;BME280;59568;52.128;5.434;2024-01-10T01:25:34;103366.84;;;-6.13;100.00
71716;BME280;59568;52.128;5.434;2024-01-10T01:28:01;103367.75;;;-6.14;100.00
71716;BME280;59568;52.128;5.434;2024-01-10T01:30:28;103361.06;;;-6.15;100.00
71716;BME280;59568;52.128;5.434;2024-01-10T01:32:55;103368.81;;;-6.16;100.00
71716;BME280;59568;52.128;5.434;2024-01-10T01:35:22;103366.59;;;-6.21;100.00
71716;BME280;59568;52.128;5.434;2024-01-10T01:37:50;103366.94;;;-6.26;100.00
71716;BME280;59568;52.128;5.434;2024-01-10T01:40:18;103356.88;;;-6.27;100.00
71716;BME280;59568;52.128;5.434;2024-01-10T01:42:46;103355.94;;;-6.26;100.00
71716;BME280;59568;52.128;5.434;2024-01-10T01:45:13;103357.56;;;-6.25;100.00
71716;BME280;59568;52.128;5.434;2024-01-10T01:47:40;103356.63;;;-6.24;100.00
71716;BME280;59568;52.128;5.434;2024-01-10T01:50:08;103338.13;;;-6.26;100.00
71716;BME280;59568;52.128;5.434;2024-01-10T01:52:36;103331.44;;;-6.27;100.00
71716;BME280;59568;52.128;5.434;2024-01-10T01:55:06;103337.22;;;-6.25;100.00
71716;BME280;59568;52.128;5.434;2024-01-10T01:57:35;103338.81;;;-6.24;100.00
71716;BME280;59568;52.128;5.434;2024-01-10T02:00:02;103338.00;;;-6.25;100.00
71716;BME280;59568;52.128;5.434;2024-01-10T02:02:30;103339.66;;;-6.24;100.00
71716;BME280;59568;52.128;5.434;2024-01-10T02:04:58;103337.91;;;-6.23;100.00
71716;BME280;59568;52.128;5.434;2024-01-10T02:07:26;103348.09;;;-6.23;100.00
71716;BME280;59568;52.128;5.434;2024-01-10T02:09:54;103347.84;;;-6.20;100.00
71716;BME280;59568;52.128;5.434;2024-01-10T02:12:21;103341.06;;;-6.19;100.00
71716;BME280;59568;52.128;5.434;2024-01-10T02:14:48;103341.84;;;-6.19;100.00
71716;BME280;59568;52.128;5.434;2024-01-10T02:17:15;103330.72;;;-6.18;100.00
71716;BME280;59568;52.128;5.434;2024-01-10T02:19:42;103328.53;;;-6.23;100.00
71716;BME280;59568;52.128;5.434;2024-01-10T02:22:09;103325.88;;;-6.21;100.00
71716;BME280;59568;52.128;5.434;2024-01-10T02:24:37;103314.66;;;-6.18;100.00
71716;BME280;59568;52.128;5.434;2024-01-10T02:27:05;103313.84;;;-6.19;100.00
71716;BME280;59568;52.128;5.434;2024-01-10T02:29:31;103318.00;;;-6.18;100.00
71716;BME280;59568;52.128;5.434;2024-01-10T02:32:00;103313.16;;;-6.21;100.00
71716;BME280;59568;52.128;5.434;2024-01-10T02:34:29;103304.59;;;-6.20;100.00
71716;BME280;59568;52.128;5.434;2024-01-10T02:36:56;103304.59;;;-6.20;100.00
71716;BME280;59568;52.128;5.434;2024-01-10T02:39:24;103300.44;;;-6.21;100.00
71716;BME280;59568;52.128;5.434;2024-01-10T02:41:50;103305.53;;;-6.21;100.00
71716;BME280;59568;52.128;5.434;2024-01-10T02:44:18;103303.88;;;-6.22;100.00
71716;BME280;59568;52.128;5.434;2024-01-10T02:46:46;103305.97;;;-6.27;100.00
71716;BME280;59568;52.128;5.434;2024-01-10T02:49:13;103294.31;;;-6.30;100.00
71716;BME280;59568;52.128;5.434;2024-01-10T02:51:40;103298.66;;;-6.32;100.00
71716;BME280;59568;52.128;5.434;2024-01-10T02:54:07;103307.03;;;-6.30;100.00
71716;BME280;59568;52.128;5.434;2024-01-10T02:56:33;103301.78;;;-6.28;100.00
71716;BME280;59568;52.128;5.434;2024-01-10T02:59:00;103303.66;;;-6.30;100.00
71716;BME280;59568;52.128;5.434;2024-01-10T03:01:27;103293.56;;;-6.32;100.00
71716;BME280;59568;52.128;5.434;2024-01-10T03:03:54;103301.56;;;-6.36;100.00
71716;BME280;59568;52.128;5.434;2024-01-10T03:06:21;103305.03;;;-6.37;100.00
71716;BME280;59568;52.128;5.434;2024-01-10T03:08:49;103298.41;;;-6.40;100.00
71716;BME280;59568;52.128;5.434;2024-01-10T03:11:16;103306.19;;;-6.41;100.00
71716;BME280;59568;52.128;5.434;2024-01-10T03:13:46;103307.09;;;-6.43;100.00
71716;BME280;59568;52.128;5.434;2024-01-10T03:16:13;103297.84;;;-6.44;100.00
71716;BME280;59568;52.128;5.434;2024-01-10T03:18:40;103290.22;;;-6.44;100.00
71716;BME280;59568;52.128;5.434;2024-01-10T03:21:07;103294.47;;;-6.44;100.00
71716;BME280;59568;52.128;5.434;2024-01-10T03:23:34;103299.56;;;-6.44;100.00
71716;BME280;59568;52.128;5.434;2024-01-10T03:26:01;103297.16;;;-6.46;100.00
71716;BME280;59568;52.128;5.434;2024-01-10T03:28:28;103293.66;;;-6.45;100.00
71716;BME280;59568;52.128;5.434;2024-01-10T03:30:55;103288.56;;;-6.45;100.00
71716;BME280;59568;52.128;5.434;2024-01-10T03:33:22;103289.38;;;-6.44;100.00
71716;BME280;59568;52.128;5.434;2024-01-10T03:35:49;103299.56;;;-6.44;100.00
71716;BME280;59568;52.128;5.434;2024-01-10T03:38:16;103302.09;;;-6.44;100.00
71716;BME280;59568;52.128;5.434;2024-01-10T03:40:43;103286.13;;;-6.46;100.00
71716;BME280;59568;52.128;5.434;2024-01-10T03:43:10;103290.44;;;-6.47;100.00
71716;BME280;59568;52.128;5.434;2024-01-10T03:45:38;103285.34;;;-6.47;100.00
71716;BME280;59568;52.128;5.434;2024-01-10T03:48:06;103292.06;;;-6.46;100.00
71716;BME280;59568;52.128;5.434;2024-01-10T03:50:33;103285.34;;;-6.47;100.00
71716;BME280;59568;52.128;5.434;2024-01-10T03:53:00;103283.59;;;-6.46;100.00
71716;BME280;59568;52.128;5.434;2024-01-10T03:55:28;103280.50;;;-6.50;100.00
71716;BME280;59568;52.128;5.434;2024-01-10T03:57:56;103275.63;;;-6.53;100.00
71716;BME280;59568;52.128;5.434;2024-01-10T04:00:23;103274.91;;;-6.55;100.00
71716;BME280;59568;52.128;5.434;2024-01-10T04:02:52;103276.66;;;-6.55;100.00
71716;BME280;59568;52.128;5.434;2024-01-10T04:05:19;103275.84;;;-6.56;100.00
71716;BME280;59568;52.128;5.434;2024-01-10T04:07:47;103269.13;;;-6.57;100.00
71716;BME280;59568;52.128;5.434;2024-01-10T04:10:14;103275.97;;;-6.57;100.00
71716;BME280;59568;52.128;5.434;2024-01-10T04:12:42;103269.34;;;-6.60;100.00
71716;BME280;59568;52.128;5.434;2024-01-10T04:15:09;103275.47;;;-6.63;100.00
71716;BME280;59568;52.128;5.434;2024-01-10T04:17:36;103261.00;;;-6.62;100.00
71716;BME280;59568;52.128;5.434;2024-01-10T04:20:04;103267.72;;;-6.61;100.00
71716;BME280;59568;52.128;5.434;2024-01-10T04:22:32;103277.91;;;-6.61;100.00
71716;BME280;59568;52.128;5.434;2024-01-10T04:25:00;103273.84;;;-6.64;100.00
71716;BME280;59568;52.128;5.434;2024-01-10T04:27:27;103282.50;;;-6.66;100.00
71716;BME280;59568;52.128;5.434;2024-01-10T04:29:54;103280.78;;;-6.66;100.00
71716;BME280;59568;52.128;5.434;2024-01-10T04:32:21;103278.34;;;-6.67;100.00
71716;BME280;59568;52.128;5.434;2024-01-10T04:34:48;103267.47;;;-6.69;100.00
71716;BME280;59568;52.128;5.434;2024-01-10T04:37:16;103272.56;;;-6.69;100.00
71716;BME280;59568;52.128;5.434;2024-01-10T04:39:43;103279.03;;;-6.65;100.00
71716;BME280;59568;52.128;5.434;2024-01-10T04:42:10;103281.50;;;-6.64;100.00
71716;BME280;59568;52.128;5.434;2024-01-10T04:44:37;103273.84;;;-6.64;100.00
71716;BME280;59568;52.128;5.434;2024-01-10T04:47:05;103266.44;;;-6.67;100.00
71716;BME280;59568;52.128;5.434;2024-01-10T04:49:32;103263.88;;;-6.67;100.00
71716;BME280;59568;52.128;5.434;2024-01-10T04:51:59;103269.22;;;-6.70;100.00
71716;BME280;59568;52.128;5.434;2024-01-10T04:54:26;103263.28;;;-6.70;100.00
71716;BME280;59568;52.128;5.434;2024-01-10T04:56:53;103265.84;;;-6.70;100.00
71716;BME280;59568;52.128;5.434;2024-01-10T04:59:20;103252.22;;;-6.69;100.00
71716;BME280;59568;52.128;5.434;2024-01-10T05:01:47;103250.59;;;-6.70;100.00
71716;BME280;59568;52.128;5.434;2024-01-10T05:04:14;103251.41;;;-6.70;100.00
71716;BME280;59568;52.128;5.434;2024-01-10T05:06:41;103250.47;;;-6.69;100.00
71716;BME280;59568;52.128;5.434;2024-01-10T05:09:08;103255.47;;;-6.67;100.00
71716;BME280;59568;52.128;5.434;2024-01-10T05:11:36;103248.53;;;-6.65;100.00
71716;BME280;59568;52.128;5.434;2024-01-10T05:14:05;103257.91;;;-6.66;100.00
71716;BME280;59568;52.128;5.434;2024-01-10T05:16:32;103250.97;;;-6.64;100.00
71716;BME280;59568;52.128;5.434;2024-01-10T05:19:02;103249.44;;;-6.66;100.00
71716;BME280;59568;52.128;5.434;2024-01-10T05:21:32;103250.28;;;-6.66;100.00
71716;BME280;59568;52.128;5.434;2024-01-10T05:23:59;103253.72;;;-6.67;100.00
71716;BME280;59568;52.128;5.434;2024-01-10T05:26:26;103247.13;;;-6.69;100.00
71716;BME280;59568;52.128;5.434;2024-01-10T05:28:53;103239.50;;;-6.69;100.00
71716;BME280;59568;52.128;5.434;2024-01-10T05:31:20;103236.16;;;-6.70;100.00
71716;BME280;59568;52.128;5.434;2024-01-10T05:33:47;103242.97;;;-6.70;100.00
71716;BME280;59568;52.128;5.434;2024-01-10T05:36:14;103246.44;;;-6.71;100.00
71716;BME280;59568;52.128;5.434;2024-01-10T05:38:41;103243.88;;;-6.71;100.00
71716;BME280;59568;52.128;5.434;2024-01-10T05:41:08;103231.19;;;-6.71;100.00
71716;BME280;59568;52.128;5.434;2024-01-10T05:43:36;103230.25;;;-6.70;100.00
71716;BME280;59568;52.128;5.434;2024-01-10T05:46:03;103235.47;;;-6.72;100.00
71716;BME280;59568;52.128;5.434;2024-01-10T05:48:31;103225.41;;;-6.73;100.00
71716;BME280;59568;52.128;5.434;2024-01-10T05:50:59;103229.53;;;-6.72;100.00
71716;BME280;59568;52.128;5.434;2024-01-10T05:53:26;103236.25;;;-6.71;100.00
71716;BME280;59568;52.128;5.434;2024-01-10T05:55:53;103242.16;;;-6.71;100.00
71716;BME280;59568;52.128;5.434;2024-01-10T05:58:20;103232.09;;;-6.72;100.00
71716;BME280;59568;52.128;5.434;2024-01-10T06:00:47;103233.81;;;-6.73;100.00
71716;BME280;59568;52.128;5.434;2024-01-10T06:03:14;103234.06;;;-6.76;100.00
71716;BME280;59568;52.128;5.434;2024-01-10T06:05:41;103235.66;;;-6.75;100.00
71716;BME280;59568;52.128;5.434;2024-01-10T06:08:08;103229.78;;;-6.75;100.00
71716;BME280;59568;52.128;5.434;2024-01-10T06:10:35;103234.88;;;-6.75;100.00
71716;BME280;59568;52.128;5.434;2024-01-10T06:13:04;103241.78;;;-6.77;100.00
71716;BME280;59568;52.128;5.434;2024-01-10T06:15:31;103233.56;;;-6.81;100.00
71716;BME280;59568;52.128;5.434;2024-01-10T06:17:58;103243.94;;;-6.84;100.00
71716;BME280;59568;52.128;5.434;2024-01-10T06:20:25;103251.00;;;-6.88;100.00
71716;BME280;59568;52.128;5.434;2024-01-10T06:22:52;103257.00;;;-6.89;100.00
71716;BME280;59568;52.128;5.434;2024-01-10T06:25:19;103250.41;;;-6.91;100.00
71716;BME280;59568;52.128;5.434;2024-01-10T06:27:46;103241.28;;;-6.94;100.00
71716;BME280;59568;52.128;5.434;2024-01-10T06:30:13;103246.66;;;-6.98;100.00
71716;BME280;59568;52.128;5.434;2024-01-10T06:32:40;103241.72;;;-7.00;100.00
71716;BME280;59568;52.128;5.434;2024-01-10T06:35:07;103238.47;;;-7.02;100.00
71716;BME280;59568;52.128;5.434;2024-01-10T06:37:37;103233.59;;;-7.05;100.00
71716;BME280;59568;52.128;5.434;2024-01-10T06:40:06;103231.16;;;-7.07;100.00
71716;BME280;59568;52.128;5.434;2024-01-10T06:42:33;103241.31;;;-7.07;100.00
71716;BME280;59568;52.128;5.434;2024-01-10T06:45:00;103238.91;;;-7.08;100.00
71716;BME280;59568;52.128;5.434;2024-01-10T06:47:27;103247.44;;;-7.09;100.00
71716;BME280;59568;52.128;5.434;2024-01-10T06:49:54;103248.56;;;-7.13;100.00
71716;BME280;59568;52.128;5.434;2024-01-10T06:52:21;103242.78;;;-7.15;100.00
71716;BME280;59568;52.128;5.434;2024-01-10T06:54:48;103244.63;;;-7.17;100.00
71716;BME280;59568;52.128;5.434;2024-01-10T06:57:15;103240.34;;;-7.17;100.00
71716;BME280;59568;52.128;5.434;2024-01-10T06:59:42;103243.84;;;-7.18;100.00
71716;BME280;59568;52.128;5.434;2024-01-10T07:02:10;103238.16;;;-7.21;100.00
71716;BME280;59568;52.128;5.434;2024-01-10T07:04:37;103241.59;;;-7.23;100.00
71716;BME280;59568;52.128;5.434;2024-01-10T07:07:05;103234.91;;;-7.24;100.00
71716;BME280;59568;52.128;5.434;2024-01-10T07:09:32;103245.06;;;-7.24;100.00
71716;BME280;59568;52.128;5.434;2024-01-10T07:11:59;103248.63;;;-7.26;100.00
71716;BME280;59568;52.128;5.434;2024-01-10T07:14:26;103240.19;;;-7.27;100.00
71716;BME280;59568;52.128;5.434;2024-01-10T07:16:53;103241.22;;;-7.29;100.00
71716;BME280;59568;52.128;5.434;2024-01-10T07:19:24;103245.59;;;-7.31;100.00
71716;BME280;59568;52.128;5.434;2024-01-10T07:21:51;103242.25;;;-7.32;100.00
71716;BME280;59568;52.128;5.434;2024-01-10T07:24:20;103245.69;;;-7.33;100.00
71716;BME280;59568;52.128;5.434;2024-01-10T07:26:48;103246.53;;;-7.32;100.00
71716;BME280;59568;52.128;5.434;2024-01-10T07:29:15;103256.78;;;-7.34;100.00
71716;BME280;59568;52.128;5.434;2024-01-10T07:31:42;103251.00;;;-7.36;100.00
71716;BME280;59568;52.128;5.434;2024-01-10T07:34:10;103253.53;;;-7.36;100.00
71716;BME280;59568;52.128;5.434;2024-01-10T07:36:46;103248.47;;;-7.36;100.00
71716;BME280;59568;52.128;5.434;2024-01-10T07:39:13;103250.78;;;-7.33;100.00
71716;BME280;59568;52.128;5.434;2024-01-10T07:41:45;103258.91;;;-7.28;100.00
71716;BME280;59568;52.128;5.434;2024-01-10T07:44:12;103263.19;;;-7.28;100.00
71716;BME280;59568;52.128;5.434;2024-01-10T07:46:39;103259.09;;;-7.31;100.00
71716;BME280;59568;52.128;5.434;2024-01-10T07:49:07;103252.19;;;-7.29;100.00
71716;BME280;59568;52.128;5.434;2024-01-10T07:51:34;103258.81;;;-7.26;100.00
71716;BME280;59568;52.128;5.434;2024-01-10T07:54:01;103269.06;;;-7.28;100.00
71716;BME280;59568;52.128;5.434;2024-01-10T07:56:28;103270.09;;;-7.30;100.00
71716;BME280;59568;52.128;5.434;2024-01-10T07:58:57;103268.03;;;-7.25;100.00
71716;BME280;59568;52.128;5.434;2024-01-10T08:01:23;103280.63;;;-7.24;100.00
71716;BME280;59568;52.128;5.434;2024-01-10T08:03:50;103287.31;;;-7.23;100.00
71716;BME280;59568;52.128;5.434;2024-01-10T08:06:18;103284.47;;;-7.18;100.00
71716;BME280;59568;52.128;5.434;2024-01-10T08:08:55;103285.75;;;-7.12;100.00
71716;BME280;59568;52.128;5.434;2024-01-10T08:11:22;103278.13;;;-7.12;100.00
71716;BME280;59568;52.128;5.434;2024-01-10T08:13:51;103278.84;;;-7.10;100.00
71716;BME280;59568;52.128;5.434;2024-01-10T08:16:18;103280.28;;;-7.06;100.00
71716;BME280;59568;52.128;5.434;2024-01-10T08:18:45;103272.66;;;-7.06;100.00
71716;BME280;59568;52.128;5.434;2024-01-10T08:21:12;103272.22;;;-7.00;100.00
71716;BME280;59568;52.128;5.434;2024-01-10T08:23:39;103276.97;;;-6.95;100.00
71716;BME280;59568;52.128;5.434;2024-01-10T08:26:07;103272.34;;;-6.90;100.00
71716;BME280;59568;52.128;5.434;2024-01-10T08:28:35;103269.59;;;-6.87;100.00
71716;BME280;59568;52.128;5.434;2024-01-10T08:31:02;103269.25;;;-6.83;100.00
71716;BME280;59568;52.128;5.434;2024-01-10T08:33:31;103265.38;;;-6.75;100.00
71716;BME280;59568;52.128;5.434;2024-01-10T08:35:58;103259.59;;;-6.66;100.00
71716;BME280;59568;52.128;5.434;2024-01-10T08:38:26;103260.91;;;-6.60;100.00
71716;BME280;59568;52.128;5.434;2024-01-10T08:40:53;103260.59;;;-6.56;100.00
71716;BME280;59568;52.128;5.434;2024-01-10T08:43:20;103253.41;;;-6.51;100.00
71716;BME280;59568;52.128;5.434;2024-01-10T08:45:47;103258.06;;;-6.45;100.00
71716;BME280;59568;52.128;5.434;2024-01-10T08:48:14;103266.16;;;-6.39;100.00
71716;BME280;59568;52.128;5.434;2024-01-10T08:50:42;103265.47;;;-6.30;100.00
71716;BME280;59568;52.128;5.434;2024-01-10T08:53:10;103264.22;;;-6.25;100.00
71716;BME280;59568;52.128;5.434;2024-01-10T08:55:37;103244.00;;;-6.15;100.00
71716;BME280;59568;52.128;5.434;2024-01-10T08:58:05;103240.88;;;-6.07;100.00
71716;BME280;59568;52.128;5.434;2024-01-10T09:00:32;103234.28;;;-5.98;100.00
71716;BME280;59568;52.128;5.434;2024-01-10T09:03:00;103240.50;;;-5.91;100.00
71716;BME280;59568;52.128;5.434;2024-01-10T09:05:27;103250.91;;;-5.83;100.00
71716;BME280;59568;52.128;5.434;2024-01-10T09:07:54;103254.84;;;-5.79;100.00
71716;BME280;59568;52.128;5.434;2024-01-10T09:10:21;103252.75;;;-5.74;100.00
71716;BME280;59568;52.128;5.434;2024-01-10T09:12:49;103246.25;;;-5.67;100.00
71716;BME280;59568;52.128;5.434;2024-01-10T09:15:16;103255.03;;;-5.59;100.00
71716;BME280;59568;52.128;5.434;2024-01-10T09:17:44;103250.31;;;-5.53;100.00
71716;BME280;59568;52.128;5.434;2024-01-10T09:20:12;103257.47;;;-5.47;100.00
71716;BME280;59568;52.128;5.434;2024-01-10T09:22:39;103257.09;;;-5.42;100.00
71716;BME280;59568;52.128;5.434;2024-01-10T09:25:07;103249.91;;;-5.37;100.00
71716;BME280;59568;52.128;5.434;2024-01-10T09:27:35;103251.84;;;-5.29;100.00
71716;BME280;59568;52.128;5.434;2024-01-10T09:30:03;103243.88;;;-5.25;100.00
71716;BME280;59568;52.128;5.434;2024-01-10T09:32:36;103244.88;;;-5.16;100.00
71716;BME280;59568;52.128;5.434;2024-01-10T09:35:04;103246.81;;;-5.08;100.00
71716;BME280;59568;52.128;5.434;2024-01-10T09:37:31;103237.72;;;-5.01;100.00
71716;BME280;59568;52.128;5.434;2024-01-10T09:39:58;103247.22;;;-4.92;100.00
71716;BME280;59568;52.128;5.434;2024-01-10T09:42:25;103240.69;;;-4.85;100.00
71716;BME280;59568;52.128;5.434;2024-01-10T09:44:52;103245.31;;;-4.78;100.00
71716;BME280;59568;52.128;5.434;2024-01-10T09:47:20;103254.06;;;-4.71;100.00
71716;BME280;59568;52.128;5.434;2024-01-10T09:49:47;103255.31;;;-4.66;100.00
71716;BME280;59568;52.128;5.434;2024-01-10T09:52:26;103247.97;;;-4.59;100.00
71716;BME280;59568;52.128;5.434;2024-01-10T09:54:57;103245.88;;;-4.54;100.00
71716;BME280;59568;52.128;5.434;2024-01-10T09:57:25;103241.16;;;-4.49;100.00
71716;BME280;59568;52.128;5.434;2024-01-10T09:59:53;103247.66;;;-4.45;100.00
71716;BME280;59568;52.128;5.434;2024-01-10T10:02:23;103250.63;;;-4.39;100.00
71716;BME280;59568;52.128;5.434;2024-01-10T10:04:56;103245.03;;;-4.33;100.00
71716;BME280;59568;52.128;5.434;2024-01-10T10:07:28;103249.63;;;-4.27;100.00
71716;BME280;59568;52.128;5.434;2024-01-10T10:09:55;103238.09;;;-4.22;100.00
71716;BME280;59568;52.128;5.434;2024-01-10T10:12:50;103242.81;;;-4.17;100.00
71716;BME280;59568;52.128;5.434;2024-01-10T10:15:21;103244.84;;;-4.11;100.00
71716;BME280;59568;52.128;5.434;2024-01-10T10:17:53;103245.41;;;-4.07;100.00
71716;BME280;59568;52.128;5.434;2024-01-10T10:20:29;103247.56;;;-4.03;100.00
71716;BME280;59568;52.128;5.434;2024-01-10T10:23:04;103250.56;;;-3.97;100.00
71716;BME280;59568;52.128;5.434;2024-01-10T10:25:36;103250.84;;;-3.91;100.00
71716;BME280;59568;52.128;5.434;2024-01-10T10:28:05;103242.81;;;-3.86;100.00
71716;BME280;59568;52.128;5.434;2024-01-10T10:30:33;103245.66;;;-3.79;100.00
71716;BME280;59568;52.128;5.434;2024-01-10T10:33:04;103240.94;;;-3.74;100.00
71716;BME280;59568;52.128;5.434;2024-01-10T10:35:34;103230.19;;;-3.68;100.00
71716;BME280;59568;52.128;5.434;2024-01-10T10:38:08;103238.44;;;-3.65;100.00
71716;BME280;59568;52.128;5.434;2024-01-10T10:40:37;103231.84;;;-3.57;100.00
71716;BME280;59568;52.128;5.434;2024-01-10T10:43:05;103221.09;;;-3.51;100.00
71716;BME280;59568;52.128;5.434;2024-01-10T10:45:32;103222.47;;;-3.47;100.00
71716;BME280;59568;52.128;5.434;2024-01-10T10:48:01;103227.84;;;-3.41;100.00
71716;BME280;59568;52.128;5.434;2024-01-10T10:50:33;103231.63;;;-3.35;100.00
71716;BME280;59568;52.128;5.434;2024-01-10T10:53:03;103227.59;;;-3.28;100.00
71716;BME280;59568;52.128;5.434;2024-01-10T10:55:31;103231.50;;;-3.24;100.00
71716;BME280;59568;52.128;5.434;2024-01-10T10:58:01;103232.84;;;-3.19;100.00
71716;BME280;59568;52.128;5.434;2024-01-10T11:00:38;103230.81;;;-3.16;100.00
71716;BME280;59568;52.128;5.434;2024-01-10T11:03:08;103220.75;;;-3.08;100.00
71716;BME280;59568;52.128;5.434;2024-01-10T11:05:40;103226.78;;;-2.99;100.00
71716;BME280;59568;52.128;5.434;2024-01-10T11:08:12;103228.00;;;-2.93;100.00
71716;BME280;59568;52.128;5.434;2024-01-10T11:10:41;103237.56;;;-2.86;100.00
71716;BME280;59568;52.128;5.434;2024-01-10T11:16:25;103227.56;;;-2.79;100.00
71716;BME280;59568;52.128;5.434;2024-01-10T11:24:53;103219.47;;;-2.65;96.89
71716;BME280;59568;52.128;5.434;2024-01-10T11:27:20;103214.88;;;-2.61;96.00
71716;BME280;59568;52.128;5.434;2024-01-10T11:29:48;103215.25;;;-2.56;94.67
71716;BME280;59568;52.128;5.434;2024-01-10T11:32:16;103208.66;;;-2.49;94.93
71716;BME280;59568;52.128;5.434;2024-01-10T11:34:59;103214.81;;;-2.42;95.37
71716;BME280;59568;52.128;5.434;2024-01-10T11:37:42;103212.66;;;-2.36;93.89
71716;BME280;59568;52.128;5.434;2024-01-10T11:40:11;103207.75;;;-2.30;93.01
71716;BME280;59568;52.128;5.434;2024-01-10T11:42:42;103203.56;;;-2.21;91.76
71716;BME280;59568;52.128;5.434;2024-01-10T11:45:10;103199.59;;;-2.15;92.26
71716;BME280;59568;52.128;5.434;2024-01-10T11:47:39;103195.00;;;-2.12;90.94
71716;BME280;59568;52.128;5.434;2024-01-10T11:50:08;103191.88;;;-2.06;89.84
71716;BME280;59568;52.128;5.434;2024-01-10T11:52:37;103194.97;;;-2.02;89.57
71716;BME280;59568;52.128;5.434;2024-01-10T11:55:04;103190.38;;;-1.98;88.30
71716;BME280;59568;52.128;5.434;2024-01-10T11:57:34;103199.75;;;-1.89;88.32
71716;BME280;59568;52.128;5.434;2024-01-10T12:00:01;103197.03;;;-1.88;87.25
71716;BME280;59568;52.128;5.434;2024-01-10T12:02:32;103188.94;;;-1.83;86.02
71716;BME280;59568;52.128;5.434;2024-01-10T12:05:00;103191.88;;;-1.78;84.89
71716;BME280;59568;52.128;5.434;2024-01-10T12:07:27;103189.53;;;-1.71;84.57
71716;BME280;59568;52.128;5.434;2024-01-10T12:09:54;103180.44;;;-1.66;82.63
71716;BME280;59568;52.128;5.434;2024-01-10T12:12:23;103175.53;;;-1.59;83.66
71716;BME280;59568;52.128;5.434;2024-01-10T12:14:50;103172.56;;;-1.54;82.82
71716;BME280;59568;52.128;5.434;2024-01-10T12:17:18;103174.16;;;-1.53;81.54
71716;BME280;59568;52.128;5.434;2024-01-10T12:19:46;103177.38;;;-1.51;81.25
71716;BME280;59568;52.128;5.434;2024-01-10T12:22:18;103168.44;;;-1.47;81.46
71716;BME280;59568;52.128;5.434;2024-01-10T12:24:49;103166.09;;;-1.41;79.95
71716;BME280;59568;52.128;5.434;2024-01-10T12:27:18;103164.03;;;-1.37;80.00
71716;BME280;59568;52.128;5.434;2024-01-10T12:29:51;103171.16;;;-1.31;80.00
71716;BME280;59568;52.128;5.434;2024-01-10T12:32:20;103164.47;;;-1.24;80.71
71716;BME280;59568;52.128;5.434;2024-01-10T12:34:59;103159.84;;;-1.20;79.85
71716;BME280;59568;52.128;5.434;2024-01-10T12:37:27;103173.84;;;-1.14;78.34
71716;BME280;59568;52.128;5.434;2024-01-10T12:39:54;103153.00;;;-1.11;77.91
71716;BME280;59568;52.128;5.434;2024-01-10T12:42:21;103157.84;;;-1.08;77.73
71716;BME280;59568;52.128;5.434;2024-01-10T12:44:48;103153.22;;;-1.05;77.65
71716;BME280;59568;52.128;5.434;2024-01-10T12:47:22;103149.41;;;-1.01;76.51
71716;BME280;59568;52.128;5.434;2024-01-10T12:49:51;103156.78;;;-0.97;76.04
71716;BME280;59568;52.128;5.434;2024-01-10T12:52:18;103147.19;;;-0.95;75.35
71716;BME280;59568;52.128;5.434;2024-01-10T12:54:51;103149.50;;;-0.84;75.26